Aurora, CO (80014)

9:30 PM MDT on October 22, 2014 (GMT -0600)
THE DAM EAST | Change Station
CLOSE
Current Station
Personal Weather Station
Location: Aurora, CO
Elevation: 5660 ft
Nearby Weather Stations

Elev 5660 ft 39.66 °N, 104.84 °W | Updated 1 second ago

Partly Cloudy
Partly Cloudy
54.7 °F
Feels Like 54.7 °F
N
0.0
Wind Variable Wind from SE
Gusts 0.0 mph

Today
High -- | Low -- °F
--% Chance of Precip.
Yesterday
High -- | Low -- °F
Precip. -- in
7:16 AM 6:10 PM
Waning Crescent, 1% visible
Pressure 30.05 in
Visibility 10.0 miles
Clouds Few 10000 ft
Scattered Clouds 22000 ft
Dew Point 43 °F
Humidity 64%
Rainfall 0.00 in
Snow Depth Not available.
UV 0 out of 12
Pollen 2.40 out of 12
PM2.5 Good
Flu Activity Sporadic
METAR KBKF 230258Z 20006KT 10SM FEW100 SCT220 10/05 A3016 RMK AO2A SLP176 T01000053 52012

More Conditions Fewer Conditions

Pressure 30.05 in
Visibility 10.0 miles
Clouds Few 10000 ft
Scattered Clouds 22000 ft
Dew Point 43 °F
Humidity 64%
Rainfall 0.00 in
Snow Depth Not available.
UV 0 out of 12
Pollen 2.40 out of 12
PM2.5 Good
Flu Activity Sporadic
METAR KBKF 230258Z 20006KT 10SM FEW100 SCT220 10/05 A3016 RMK AO2A SLP176 T01000053 52012

More Conditions Fewer Conditions

10-Day Weather Forecast

Almanac

Astronomy

Oct. 22, 2014 Rise Set
Actual Time 7:16 AM MDT 6:10 PM MDT
Civil Twilight 6:49 AM MDT 6:37 PM MDT
Nautical Twilight 6:18 AM MDT 7:08 PM MDT
Astronomical Twilight 5:46 AM MDT 7:40 PM MDT
Moon 6:00 AM MDT (10/22) 5:38 PM MDT (10/22)
Length of Visible Light 11h 48m
Length of Day
10h 53m
Tomorrow will be 2m 25s shorter.
Waning Crescent, 1% of the Moon is Illuminated
Today
Waning Crescent
Oct 23
New
Oct 30
First Quarter
Nov 6
Full
Nov 14
Last Quarter

Today's Extremes

State Highs State Lows

Community

WunderPhotos

Upload Photos

1,764,129 photos uploaded!

Nearby

Air Quality

  Air Quality AQ Index Pollutant
Yesterday Good
OZONE
Yesterday Good
PM10
Current Good
PM2.5
Wednesday Good
OZONE
Wednesday Good
PM2.5
Thursday Good
OZONE
Thursday Good
PM2.5

Snow Depth

Station Depth Elevation
Echo Lake 0 in 10600 ft
Niwot 0 in 9910 ft
University Camp 1 in 10300 ft
Berthoud Summit 1 in 11300 ft
Jackwhacker Gulch 0 in 10960 ft

Earthquake Activity

City Distance Mag. Time & Date
No recent earthquake activity has been reported nearby.
Minimum magnitude displayed is 2.5.

Coastal Water Temperatures

Place Temperature
No Stations Reporting

Nearby Weather Stations